4XADI LLBS-LLMZ
Flight info
| Callsign | 4XADI |
|---|---|
| Flight time | 0h 35m |
| Altitude | 4000 |
| Route | LLBS NCITY OMMER SOKET MYTAR TARAD ARRAD LLMZ |
| Aircraft | C152/L-C/5100 |
Departure
| Time | 2026-05-06 18:26 |
|---|---|
| Airport | Beersheba (Teyman) Airport (LLBS) |
Arrival
| Time | 2026-05-06 19:01 |
|---|---|
| Airport | Bar Yehuda Airfield (LLMZ) |
| Time | Latitude | Longitude | Altitude | Speed | Heading |
|---|---|---|---|---|---|
| 2026-05-06 18:12 | 31.28399 | 34.72649 | 658 ft | 0 kts | 98° |
| 2026-05-06 18:15 | 31.28398 | 34.72651 | 658 ft | 2 kts | 105° |
| 2026-05-06 18:15 | 31.28389 | 34.72662 | 659 ft | 0 kts | 146° |
| 2026-05-06 18:22 | 31.28387 | 34.72663 | 659 ft | 2 kts | 142° |
| 2026-05-06 18:22 | 31.28366 | 34.72703 | 659 ft | 8 kts | 126° |
| 2026-05-06 18:22 | 31.28336 | 34.72730 | 659 ft | 0 kts | 173° |
| 2026-05-06 18:24 | 31.28310 | 34.72700 | 659 ft | 0 kts | 283° |
| 2026-05-06 18:24 | 31.28362 | 34.72628 | 659 ft | 37 kts | 318° |
| 2026-05-06 18:25 | 31.28677 | 34.72307 | 675 ft | 74 kts | 318° |
| 2026-05-06 18:25 | 31.29036 | 34.71858 | 840 ft | 76 kts | 310° |
| 2026-05-06 18:25 | 31.29329 | 34.71435 | 1036 ft | 76 kts | 302° |
| 2026-05-06 18:25 | 31.29724 | 34.70948 | 1108 ft | 86 kts | 321° |
| 2026-05-06 18:26 | 31.30244 | 34.70975 | 1320 ft | 81 kts | 27° |
| 2026-05-06 18:26 | 31.30725 | 34.71323 | 1509 ft | 78 kts | 31° |
| 2026-05-06 18:26 | 31.31144 | 34.71679 | 1727 ft | 74 kts | 38° |
| 2026-05-06 18:26 | 31.31533 | 34.72067 | 1938 ft | 70 kts | 40° |
| 2026-05-06 18:27 | 31.31734 | 34.72547 | 2109 ft | 74 kts | 78° |
| 2026-05-06 18:27 | 31.31775 | 34.73150 | 2274 ft | 74 kts | 96° |
| 2026-05-06 18:27 | 31.31648 | 34.73718 | 2461 ft | 72 kts | 116° |
| 2026-05-06 18:27 | 31.31339 | 34.74225 | 2564 ft | 82 kts | 132° |
| 2026-05-06 18:28 | 31.30962 | 34.74837 | 2543 ft | 96 kts | 123° |
| 2026-05-06 18:28 | 31.30633 | 34.75511 | 2614 ft | 95 kts | 114° |
| 2026-05-06 18:28 | 31.30364 | 34.76240 | 2649 ft | 97 kts | 115° |
| 2026-05-06 18:28 | 31.30190 | 34.77141 | 2291 ft | 117 kts | 99° |
| 2026-05-06 18:29 | 31.30004 | 34.77997 | 2385 ft | 103 kts | 110° |
| 2026-05-06 18:29 | 31.29710 | 34.78787 | 2262 ft | 113 kts | 114° |
| 2026-05-06 18:29 | 31.29400 | 34.79649 | 1995 ft | 124 kts | 105° |
| 2026-05-06 18:29 | 31.29233 | 34.80555 | 2073 ft | 106 kts | 105° |
| 2026-05-06 18:30 | 31.29061 | 34.81268 | 2400 ft | 76 kts | 109° |
| 2026-05-06 18:30 | 31.28856 | 34.81879 | 2451 ft | 93 kts | 111° |
| 2026-05-06 18:30 | 31.28617 | 34.82662 | 2307 ft | 110 kts | 110° |
| 2026-05-06 18:30 | 31.28348 | 34.83482 | 2323 ft | 103 kts | 115° |
| 2026-05-06 18:31 | 31.28066 | 34.84270 | 2343 ft | 99 kts | 114° |
| 2026-05-06 18:31 | 31.27996 | 34.84900 | 2672 ft | 76 kts | 71° |
| 2026-05-06 18:31 | 31.28178 | 34.85390 | 2903 ft | 68 kts | 65° |
| 2026-05-06 18:31 | 31.28270 | 34.85691 | 3034 ft | 65 kts | 75° |
| 2026-05-06 18:32 | 31.28431 | 34.86239 | 3114 ft | 79 kts | 62° |
| 2026-05-06 18:32 | 31.28757 | 34.86869 | 2924 ft | 111 kts | 53° |
| 2026-05-06 18:33 | 31.29221 | 34.87560 | 2746 ft | 102 kts | 49° |
| 2026-05-06 18:33 | 31.29622 | 34.88125 | 2759 ft | 87 kts | 52° |
| 2026-05-06 18:33 | 31.29932 | 34.88665 | 2833 ft | 71 kts | 58° |
| 2026-05-06 18:33 | 31.30132 | 34.89122 | 2941 ft | 66 kts | 58° |
| 2026-05-06 18:34 | 31.30391 | 34.89584 | 3088 ft | 72 kts | 54° |
| 2026-05-06 18:34 | 31.30643 | 34.89987 | 3379 ft | 49 kts | 53° |
| 2026-05-06 18:34 | 31.30708 | 34.90390 | 3473 ft | 56 kts | 83° |
| 2026-05-06 18:34 | 31.30719 | 34.90825 | 3620 ft | 57 kts | 88° |
| 2026-05-06 18:35 | 31.30720 | 34.91338 | 3678 ft | 66 kts | 93° |
| 2026-05-06 18:35 | 31.30699 | 34.91910 | 3622 ft | 72 kts | 96° |
| 2026-05-06 18:35 | 31.30619 | 34.92466 | 3566 ft | 63 kts | 103° |
| 2026-05-06 18:35 | 31.30435 | 34.92932 | 3503 ft | 64 kts | 127° |
| 2026-05-06 18:36 | 31.30094 | 34.93359 | 3349 ft | 80 kts | 134° |
| 2026-05-06 18:36 | 31.29752 | 34.93881 | 3349 ft | 78 kts | 124° |
| 2026-05-06 18:36 | 31.29538 | 34.94415 | 3413 ft | 70 kts | 107° |
| 2026-05-06 18:36 | 31.29415 | 34.94965 | 3446 ft | 70 kts | 102° |
| 2026-05-06 18:37 | 31.29375 | 34.95532 | 3478 ft | 70 kts | 90° |
| 2026-05-06 18:37 | 31.29384 | 34.95906 | 3510 ft | 69 kts | 87° |
| 2026-05-06 18:37 | 31.29440 | 34.96672 | 3531 ft | 76 kts | 91° |
| 2026-05-06 18:37 | 31.29505 | 34.97316 | 3559 ft | 86 kts | 79° |
| 2026-05-06 18:38 | 31.29640 | 34.98036 | 3469 ft | 89 kts | 74° |
| 2026-05-06 18:38 | 31.29821 | 34.98633 | 3601 ft | 69 kts | 66° |
| 2026-05-06 18:38 | 31.29990 | 34.99233 | 3543 ft | 83 kts | 78° |
| 2026-05-06 18:38 | 31.30046 | 34.99944 | 3520 ft | 91 kts | 90° |
| 2026-05-06 18:39 | 31.29995 | 35.00692 | 3515 ft | 95 kts | 102° |
| 2026-05-06 18:39 | 31.29889 | 35.01435 | 3577 ft | 91 kts | 100° |
| 2026-05-06 18:39 | 31.29766 | 35.02199 | 3504 ft | 101 kts | 105° |
| 2026-05-06 18:40 | 31.29388 | 35.03671 | 3572 ft | 94 kts | 108° |
| 2026-05-06 18:40 | 31.29195 | 35.04420 | 3566 ft | 93 kts | 102° |
| 2026-05-06 18:40 | 31.29022 | 35.05188 | 3428 ft | 105 kts | 107° |
| 2026-05-06 18:40 | 31.28871 | 35.05996 | 3451 ft | 97 kts | 103° |
| 2026-05-06 18:41 | 31.28681 | 35.06730 | 3518 ft | 91 kts | 101° |
| 2026-05-06 18:41 | 31.28599 | 35.07471 | 3551 ft | 94 kts | 97° |
| 2026-05-06 18:41 | 31.28505 | 35.08241 | 3525 ft | 97 kts | 98° |
| 2026-05-06 18:41 | 31.28378 | 35.09018 | 3533 ft | 95 kts | 102° |
| 2026-05-06 18:42 | 31.28208 | 35.09763 | 3526 ft | 98 kts | 109° |
| 2026-05-06 18:42 | 31.27988 | 35.10516 | 3521 ft | 97 kts | 110° |
| 2026-05-06 18:42 | 31.27754 | 35.11250 | 3528 ft | 99 kts | 111° |
| 2026-05-06 18:42 | 31.27560 | 35.12037 | 3494 ft | 95 kts | 104° |
| 2026-05-06 18:43 | 31.27381 | 35.12712 | 3557 ft | 91 kts | 111° |
| 2026-05-06 18:43 | 31.27138 | 35.13496 | 3420 ft | 101 kts | 109° |
| 2026-05-06 18:43 | 31.26930 | 35.14235 | 3509 ft | 94 kts | 109° |
| 2026-05-06 18:43 | 31.26744 | 35.14981 | 3459 ft | 99 kts | 105° |
| 2026-05-06 18:44 | 31.26590 | 35.15699 | 3574 ft | 87 kts | 102° |
| 2026-05-06 18:44 | 31.26463 | 35.16438 | 3561 ft | 96 kts | 101° |
| 2026-05-06 18:44 | 31.26345 | 35.17201 | 3597 ft | 92 kts | 97° |
| 2026-05-06 18:44 | 31.26248 | 35.17980 | 3504 ft | 101 kts | 102° |
| 2026-05-06 18:45 | 31.26053 | 35.18738 | 3546 ft | 94 kts | 111° |
| 2026-05-06 18:45 | 31.25865 | 35.19456 | 3571 ft | 92 kts | 104° |
| 2026-05-06 18:45 | 31.25716 | 35.20226 | 3465 ft | 101 kts | 103° |
| 2026-05-06 18:45 | 31.25615 | 35.20753 | 3425 ft | 101 kts | 105° |
| 2026-05-06 18:46 | 31.25375 | 35.21750 | 3517 ft | 87 kts | 106° |
| 2026-05-06 18:46 | 31.25205 | 35.22451 | 3451 ft | 98 kts | 99° |
| 2026-05-06 18:46 | 31.25277 | 35.23263 | 3347 ft | 99 kts | 69° |
| 2026-05-06 18:46 | 31.25538 | 35.23836 | 3642 ft | 59 kts | 49° |
| 2026-05-06 18:47 | 31.25836 | 35.24274 | 3569 ft | 84 kts | 58° |
| 2026-05-06 18:47 | 31.26180 | 35.24952 | 3389 ft | 101 kts | 58° |
| 2026-05-06 18:47 | 31.26506 | 35.25660 | 3378 ft | 94 kts | 62° |
| 2026-05-06 18:47 | 31.26817 | 35.26299 | 3392 ft | 93 kts | 55° |
| 2026-05-06 18:48 | 31.27176 | 35.26984 | 3327 ft | 94 kts | 60° |
| 2026-05-06 18:48 | 31.27484 | 35.27635 | 3387 ft | 96 kts | 60° |
| 2026-05-06 18:48 | 31.27819 | 35.28357 | 3340 ft | 102 kts | 64° |
| 2026-05-06 18:48 | 31.28089 | 35.29154 | 3297 ft | 104 kts | 73° |
| 2026-05-06 18:49 | 31.28290 | 35.29964 | 3299 ft | 103 kts | 73° |
| 2026-05-06 18:49 | 31.28463 | 35.30792 | 3179 ft | 113 kts | 81° |
| 2026-05-06 18:49 | 31.28587 | 35.31681 | 3147 ft | 108 kts | 81° |
| 2026-05-06 18:49 | 31.28661 | 35.32604 | 2953 ft | 115 kts | 91° |
| 2026-05-06 18:50 | 31.28716 | 35.33499 | 2968 ft | 101 kts | 77° |
| 2026-05-06 18:50 | 31.28863 | 35.34270 | 3047 ft | 97 kts | 81° |
| 2026-05-06 18:50 | 31.29052 | 35.35006 | 3142 ft | 91 kts | 61° |
| 2026-05-06 18:50 | 31.29436 | 35.35595 | 3153 ft | 98 kts | 45° |
| 2026-05-06 18:51 | 31.29946 | 35.36303 | 2822 ft | 117 kts | 57° |
| 2026-05-06 18:51 | 31.30435 | 35.37021 | 2837 ft | 102 kts | 38° |
| 2026-05-06 18:51 | 31.31063 | 35.37360 | 2849 ft | 98 kts | 7° |
| 2026-05-06 18:51 | 31.31759 | 35.37316 | 2721 ft | 109 kts | 354° |
| 2026-05-06 18:52 | 31.32546 | 35.37205 | 2501 ft | 116 kts | 350° |
| 2026-05-06 18:52 | 31.33324 | 35.37004 | 2040 ft | 108 kts | 343° |
| 2026-05-06 18:52 | 31.34001 | 35.36784 | 1698 ft | 94 kts | 344° |
| 2026-05-06 18:52 | 31.34588 | 35.36610 | 1507 ft | 82 kts | 347° |
| 2026-05-06 18:53 | 31.35165 | 35.36592 | 1219 ft | 85 kts | 23° |
| 2026-05-06 18:53 | 31.35641 | 35.37098 | 937 ft | 111 kts | 44° |
| 2026-05-06 18:53 | 31.36142 | 35.37746 | 976 ft | 103 kts | 43° |
| 2026-05-06 18:53 | 31.36528 | 35.38372 | 1181 ft | 80 kts | 65° |
| 2026-05-06 18:54 | 31.36700 | 35.38806 | 1165 ft | 95 kts | 65° |
| 2026-05-06 18:54 | 31.36967 | 35.39526 | 1199 ft | 100 kts | 69° |
| 2026-05-06 18:54 | 31.37203 | 35.40312 | 1228 ft | 101 kts | 72° |
| 2026-05-06 18:54 | 31.37377 | 35.41107 | 1229 ft | 102 kts | 83° |
| 2026-05-06 18:55 | 31.37298 | 35.41889 | 1277 ft | 97 kts | 114° |
| 2026-05-06 18:55 | 31.36851 | 35.42482 | 1244 ft | 99 kts | 156° |
| 2026-05-06 18:55 | 31.36158 | 35.42578 | 1052 ft | 107 kts | 185° |
| 2026-05-06 18:55 | 31.35409 | 35.42451 | 811 ft | 113 kts | 197° |
| 2026-05-06 18:56 | 31.34644 | 35.42130 | 332 ft | 116 kts | 197° |
| 2026-05-06 18:56 | 31.34007 | 35.41919 | 266 ft | 79 kts | 198° |
| 2026-05-06 18:56 | 31.33485 | 35.41706 | 375 ft | 82 kts | 201° |
| 2026-05-06 18:56 | 31.32882 | 35.41515 | 357 ft | 91 kts | 193° |
| 2026-05-06 18:57 | 31.32289 | 35.41385 | 432 ft | 94 kts | 191° |
| 2026-05-06 18:57 | 31.31614 | 35.41281 | 381 ft | 94 kts | 187° |
| 2026-05-06 18:57 | 31.31009 | 35.41228 | 419 ft | 89 kts | 185° |
| 2026-05-06 18:57 | 31.30394 | 35.41163 | 379 ft | 91 kts | 187° |
| 2026-05-06 18:58 | 31.29791 | 35.41014 | 386 ft | 87 kts | 201° |
| 2026-05-06 18:58 | 31.29250 | 35.40699 | 424 ft | 89 kts | 215° |
| 2026-05-06 18:58 | 31.28749 | 35.40223 | 332 ft | 95 kts | 226° |
| 2026-05-06 18:58 | 31.28392 | 35.39686 | 284 ft | 80 kts | 241° |
| 2026-05-06 18:59 | 31.28173 | 35.39067 | 329 ft | 80 kts | 257° |
| 2026-05-06 18:59 | 31.28328 | 35.38449 | 357 ft | 85 kts | 315° |
| 2026-05-06 18:59 | 31.28920 | 35.38132 | 147 ft | 104 kts | 351° |
| 2026-05-06 18:59 | 31.29646 | 35.38183 | -62 ft | 106 kts | 4° |
| 2026-05-06 19:00 | 31.30411 | 35.38269 | -250 ft | 117 kts | 7° |
| 2026-05-06 19:00 | 31.31062 | 35.38430 | -551 ft | 73 kts | 14° |
| 2026-05-06 19:00 | 31.31503 | 35.38570 | -831 ft | 61 kts | 10° |
| 2026-05-06 19:00 | 31.31959 | 35.38661 | -989 ft | 75 kts | 8° |
| 2026-05-06 19:01 | 31.32422 | 35.38766 | -1222 ft | 55 kts | 8° |
| 2026-05-06 19:01 | 31.32713 | 35.38824 | -1241 ft | 45 kts | 9° |
| 2026-05-06 19:01 | 31.32928 | 35.38858 | -1244 ft | 6 kts | 341° |
| 2026-05-06 19:01 | 31.32966 | 35.38844 | -1237 ft | 3 kts | 2° |
| 2026-05-06 19:02 | 31.32972 | 35.38845 | -1244 ft | 0 kts | 9° |